createdAt,value
2023-02-14T00:00:45.933Z,15.27
2023-02-14T00:03:14.129Z,15.32
2023-02-14T00:05:40.761Z,16.48
2023-02-14T00:08:07.512Z,15.60
2023-02-14T00:10:34.242Z,14.18
2023-02-14T00:13:00.890Z,16.38
2023-02-14T00:15:27.688Z,15.60
2023-02-14T00:17:56.565Z,16.08
2023-02-14T00:20:23.562Z,15.35
2023-02-14T00:22:50.247Z,15.18
2023-02-14T00:25:17.170Z,15.63
2023-02-14T00:27:44.047Z,15.13
2023-02-14T00:30:12.823Z,15.93
2023-02-14T00:32:40.582Z,14.50
2023-02-14T00:35:08.843Z,14.82
2023-02-14T00:37:35.519Z,15.38
2023-02-14T00:40:02.394Z,14.80
2023-02-14T00:42:29.089Z,15.25
2023-02-14T00:44:55.781Z,14.93
2023-02-14T00:47:22.683Z,15.00
2023-02-14T00:49:49.420Z,15.18
2023-02-14T00:52:16.114Z,15.65
2023-02-14T00:54:42.748Z,14.30
2023-02-14T00:57:09.418Z,15.85
2023-02-14T00:59:36.309Z,16.42
2023-02-14T01:02:04.255Z,14.63
2023-02-14T01:04:31.035Z,15.90
2023-02-14T01:07:00.812Z,15.40
2023-02-14T01:09:27.506Z,15.35
2023-02-14T01:11:54.313Z,15.43
2023-02-14T01:14:21.022Z,14.80
2023-02-14T01:16:49.561Z,14.40
2023-02-14T01:19:16.584Z,15.13
2023-02-14T01:21:43.727Z,14.75
2023-02-14T01:24:10.829Z,15.57
2023-02-14T01:26:37.604Z,13.40
2023-02-14T01:29:05.133Z,14.77
2023-02-14T01:31:34.168Z,15.32
2023-02-14T01:34:01.455Z,14.68
2023-02-14T01:36:32.073Z,14.18
2023-02-14T01:39:01.197Z,14.50
2023-02-14T01:41:33.056Z,15.82
2023-02-14T01:44:02.608Z,15.30
2023-02-14T01:46:34.603Z,15.27
2023-02-14T01:49:20.113Z,14.20
2023-02-14T01:51:53.321Z,14.73
2023-02-14T01:54:20.621Z,14.73
2023-02-14T01:56:52.168Z,14.98
2023-02-14T01:59:21.752Z,14.82
2023-02-14T02:01:53.457Z,14.65
2023-02-14T02:04:25.840Z,15.30
2023-02-14T02:06:59.684Z,15.43
2023-02-14T02:09:35.068Z,16.27
2023-02-14T02:12:11.095Z,14.52
2023-02-14T02:14:37.990Z,15.75
2023-02-14T02:17:20.606Z,14.85
2023-02-14T02:20:23.218Z,15.15
2023-02-14T02:22:55.644Z,13.93
2023-02-14T02:25:56.491Z,13.85
2023-02-14T02:29:08.674Z,13.75
2023-02-14T02:32:12.782Z,14.00
2023-02-14T02:34:57.748Z,14.60
2023-02-14T02:37:56.789Z,13.95
2023-02-14T02:40:33.372Z,14.55
2023-02-14T02:43:26.297Z,14.65
2023-02-14T02:46:18.031Z,15.07
2023-02-14T02:48:51.207Z,14.45
2023-02-14T02:51:52.957Z,14.20
2023-02-14T02:54:39.923Z,14.85
2023-02-14T02:57:12.426Z,14.55
2023-02-14T02:59:42.255Z,12.95
2023-02-14T03:02:21.631Z,13.77
2023-02-14T03:04:54.666Z,13.55
2023-02-14T03:07:36.229Z,14.00
2023-02-14T03:10:18.182Z,12.80
2023-02-14T03:13:09.766Z,12.65
2023-02-14T03:15:51.510Z,13.25
2023-02-14T03:18:48.064Z,13.32
2023-02-14T03:21:51.809Z,13.18
2023-02-14T03:24:45.580Z,13.65
2023-02-14T03:27:26.074Z,13.68
2023-02-14T03:30:09.864Z,13.13
2023-02-14T03:32:40.062Z,14.32
2023-02-14T03:35:31.033Z,13.68
2023-02-14T03:38:05.887Z,14.48
2023-02-14T03:40:35.922Z,14.07
2023-02-14T03:43:09.935Z,14.27
2023-02-14T03:45:49.153Z,13.68
2023-02-14T03:48:16.724Z,12.68
2023-02-14T03:50:46.104Z,11.98
2023-02-14T03:53:14.229Z,13.68
2023-02-14T03:55:47.126Z,13.13
2023-02-14T03:58:27.651Z,13.68
2023-02-14T04:00:59.775Z,15.15
2023-02-14T04:03:27.789Z,14.50
2023-02-14T04:05:54.848Z,14.32
2023-02-14T04:08:26.372Z,14.63
2023-02-14T04:10:53.850Z,14.27
2023-02-14T04:13:21.027Z,14.52
2023-02-14T04:15:47.786Z,14.30
2023-02-14T04:18:33.069Z,13.73
2023-02-14T04:21:00.041Z,15.20
2023-02-14T04:23:26.890Z,15.55
2023-02-14T04:25:53.713Z,13.95
2023-02-14T04:28:20.408Z,13.45
2023-02-14T04:30:47.064Z,15.02
2023-02-14T04:33:13.711Z,13.32
2023-02-14T04:35:40.336Z,14.18
2023-02-14T04:38:07.849Z,14.05
2023-02-14T04:40:34.459Z,14.07
2023-02-14T04:43:01.665Z,14.57
2023-02-14T04:45:28.299Z,13.48
2023-02-14T04:47:55.240Z,12.98
2023-02-14T04:50:23.618Z,14.10
2023-02-14T04:52:50.264Z,13.60
2023-02-14T04:55:17.001Z,14.70
2023-02-14T04:57:43.685Z,15.88
2023-02-14T05:00:11.303Z,15.57
2023-02-14T05:02:38.006Z,14.55
2023-02-14T05:05:05.036Z,14.65
2023-02-14T05:07:31.847Z,14.88
2023-02-14T05:09:58.578Z,14.85
2023-02-14T05:12:25.202Z,14.40
2023-02-14T05:14:51.863Z,15.32
2023-02-14T05:17:18.687Z,15.07
2023-02-14T05:19:45.439Z,14.63
2023-02-14T05:22:12.147Z,15.25
2023-02-14T05:24:39.086Z,14.52
2023-02-14T05:27:05.791Z,15.38
2023-02-14T05:29:32.475Z,17.67
2023-02-14T05:31:59.360Z,14.98
2023-02-14T05:34:26.114Z,20.52
2023-02-14T05:36:54.197Z,16.42
2023-02-14T05:39:20.998Z,16.33
2023-02-14T05:41:49.158Z,14.55
2023-02-14T05:44:15.982Z,15.65
2023-02-14T05:46:42.623Z,16.33
2023-02-14T05:49:09.311Z,16.50
2023-02-14T05:51:36.032Z,15.15
2023-02-14T05:54:02.644Z,16.42
2023-02-14T05:56:29.288Z,15.15
2023-02-14T05:58:55.983Z,14.60
2023-02-14T06:01:22.907Z,15.15
2023-02-14T06:03:49.560Z,17.13
2023-02-14T06:06:16.216Z,15.77
2023-02-14T06:08:42.867Z,15.70
2023-02-14T06:11:09.546Z,15.60
2023-02-14T06:13:36.182Z,14.45
2023-02-14T06:16:04.660Z,16.80
2023-02-14T06:18:37.489Z,16.73
2023-02-14T06:21:04.465Z,16.02
2023-02-14T06:23:31.084Z,16.33
2023-02-14T06:25:57.798Z,16.73
2023-02-14T06:28:24.473Z,15.88
2023-02-14T06:30:51.611Z,15.95
2023-02-14T06:33:18.303Z,15.55
2023-02-14T06:35:44.945Z,15.25
2023-02-14T06:38:11.565Z,14.65
2023-02-14T06:40:38.280Z,15.35
2023-02-14T06:43:05.551Z,15.02
2023-02-14T06:45:33.210Z,15.75
2023-02-14T06:48:00.495Z,14.73
2023-02-14T06:50:27.246Z,15.05
2023-02-14T06:52:53.975Z,17.02
2023-02-14T06:55:20.859Z,17.30
2023-02-14T06:57:47.667Z,17.65
2023-02-14T07:00:15.026Z,17.77
2023-02-14T07:02:42.749Z,17.55
2023-02-14T07:05:09.466Z,16.70
2023-02-14T07:07:36.247Z,18.88
2023-02-14T07:10:03.252Z,19.65
2023-02-14T07:12:30.110Z,17.83
2023-02-14T07:14:56.942Z,17.15
2023-02-14T07:17:23.597Z,18.33
2023-02-14T07:19:50.207Z,17.23
2023-02-14T07:22:16.953Z,18.27
2023-02-14T07:24:46.637Z,18.13
2023-02-14T07:27:13.411Z,17.95
2023-02-14T07:29:40.015Z,17.27
2023-02-14T07:32:07.770Z,16.67
2023-02-14T07:34:34.754Z,16.80
2023-02-14T07:37:01.983Z,17.90
2023-02-14T07:39:28.609Z,18.13
2023-02-14T07:41:55.221Z,17.92
2023-02-14T07:44:22.732Z,18.88
2023-02-14T07:46:49.470Z,18.05
2023-02-14T07:49:16.233Z,18.30
2023-02-14T07:51:42.860Z,17.38
2023-02-14T07:54:09.533Z,15.90
2023-02-14T07:56:36.223Z,16.83
2023-02-14T07:59:03.103Z,18.23
2023-02-14T08:01:29.801Z,16.50
2023-02-14T08:03:59.507Z,18.25
2023-02-14T08:06:28.031Z,16.92
2023-02-14T08:08:54.787Z,18.25
2023-02-14T08:11:39.950Z,18.33
2023-02-14T08:14:06.676Z,19.42
2023-02-14T08:16:34.776Z,17.95
2023-02-14T08:19:02.002Z,18.33
2023-02-14T08:21:28.720Z,16.95
2023-02-14T08:23:55.425Z,17.73
2023-02-14T08:26:22.076Z,16.98
2023-02-14T08:28:51.760Z,17.92
2023-02-14T08:31:34.333Z,16.80
2023-02-14T08:34:05.471Z,16.33
2023-02-14T08:36:32.785Z,17.30
2023-02-14T08:38:59.511Z,17.15
2023-02-14T08:41:26.306Z,16.02
2023-02-14T08:43:53.208Z,17.85
2023-02-14T08:46:19.994Z,17.00
2023-02-14T08:48:46.680Z,18.15
2023-02-14T08:51:14.600Z,16.67
2023-02-14T08:53:42.258Z,18.25
2023-02-14T08:56:13.569Z,18.15
2023-02-14T08:58:40.876Z,17.30
2023-02-14T09:01:13.220Z,15.85
2023-02-14T09:03:40.062Z,16.13
2023-02-14T09:06:09.237Z,16.88
2023-02-14T09:08:39.693Z,16.58
2023-02-14T09:11:18.903Z,16.33
2023-02-14T09:13:46.183Z,17.38
2023-02-14T09:16:14.468Z,17.15
2023-02-14T09:18:41.216Z,17.05
2023-02-14T09:21:15.223Z,16.98
2023-02-14T09:23:42.115Z,15.18
2023-02-14T09:26:10.989Z,15.70
2023-02-14T09:28:38.294Z,14.85
2023-02-14T09:31:17.392Z,15.50
2023-02-14T09:34:04.175Z,14.93
2023-02-14T09:36:49.454Z,14.43
2023-02-14T09:39:16.276Z,15.38
2023-02-14T09:42:10.755Z,14.73
2023-02-14T09:44:47.739Z,15.18
2023-02-14T09:47:37.447Z,15.35
2023-02-14T09:50:26.383Z,15.27
2023-02-14T09:52:57.707Z,15.40
2023-02-14T09:55:26.920Z,16.67
2023-02-14T09:58:12.395Z,15.13
2023-02-14T10:00:46.642Z,15.57
2023-02-14T10:03:22.318Z,14.98
2023-02-14T10:05:56.965Z,14.38
2023-02-14T10:08:42.059Z,13.98
2023-02-14T10:11:20.348Z,14.52
2023-02-14T10:13:52.213Z,13.55
2023-02-14T10:16:27.175Z,13.55
2023-02-14T10:19:02.907Z,13.50
2023-02-14T10:21:37.465Z,13.85
2023-02-14T10:24:20.598Z,13.20
2023-02-14T10:26:48.736Z,13.77
2023-02-14T10:29:17.313Z,14.02
2023-02-14T10:31:55.961Z,13.40
2023-02-14T10:34:35.829Z,14.43
2023-02-14T10:37:21.155Z,14.15
2023-02-14T10:39:57.595Z,13.82
2023-02-14T10:42:44.550Z,14.10
2023-02-14T10:45:39.688Z,16.58
2023-02-14T10:48:24.622Z,14.23
2023-02-14T10:51:12.922Z,14.68
2023-02-14T10:54:25.909Z,13.65
2023-02-14T10:57:00.313Z,14.27
2023-02-14T10:59:39.349Z,14.23
2023-02-14T11:02:06.517Z,14.32
2023-02-14T11:04:33.244Z,14.65
2023-02-14T11:06:59.903Z,14.35
2023-02-14T11:09:26.653Z,14.25
2023-02-14T11:11:55.932Z,13.65
2023-02-14T11:14:32.652Z,14.27
2023-02-14T11:17:00.841Z,13.68
2023-02-14T11:19:36.855Z,13.73
2023-02-14T11:22:04.480Z,14.00
2023-02-14T11:24:41.553Z,13.95
2023-02-14T11:27:17.556Z,14.90
2023-02-14T11:29:48.262Z,14.98
2023-02-14T11:32:23.760Z,16.58
2023-02-14T11:34:53.968Z,15.70
2023-02-14T11:37:23.507Z,15.80
2023-02-14T11:39:50.912Z,15.45
2023-02-14T11:42:36.251Z,15.02
2023-02-14T11:45:05.344Z,15.65
2023-02-14T11:47:34.697Z,15.40
2023-02-14T11:50:06.221Z,15.02
2023-02-14T11:52:34.087Z,15.40
2023-02-14T11:55:01.242Z,15.18
2023-02-14T11:57:33.077Z,15.55
2023-02-14T12:00:02.232Z,15.80
2023-02-14T12:02:41.710Z,15.68
2023-02-14T12:05:28.680Z,14.43
2023-02-14T12:08:00.958Z,15.68
2023-02-14T12:10:30.930Z,14.27
2023-02-14T12:13:09.577Z,14.77
2023-02-14T12:15:40.579Z,13.30
2023-02-14T12:18:47.827Z,13.35
2023-02-14T12:21:26.156Z,13.05
2023-02-14T12:24:04.713Z,14.05
2023-02-14T12:26:55.484Z,14.82
2023-02-14T12:29:40.324Z,14.10
2023-02-14T12:32:27.561Z,14.63
2023-02-14T12:35:19.108Z,14.73
2023-02-14T12:37:56.002Z,13.70
2023-02-14T12:41:00.949Z,12.93
2023-02-14T12:43:50.944Z,13.23
2023-02-14T12:46:21.246Z,12.60
2023-02-14T12:49:00.316Z,13.05
2023-02-14T12:51:54.509Z,14.20
2023-02-14T12:54:39.967Z,13.82
2023-02-14T12:57:27.402Z,13.25
2023-02-14T13:00:09.537Z,12.93
2023-02-14T13:03:01.581Z,14.20
2023-02-14T13:05:41.941Z,13.25
2023-02-14T13:08:27.609Z,13.95
2023-02-14T13:11:07.564Z,14.18
2023-02-14T13:14:05.048Z,12.90
2023-02-14T13:17:09.297Z,14.93
2023-02-14T13:20:01.764Z,13.60
2023-02-14T13:22:29.770Z,14.13
2023-02-14T13:24:59.909Z,13.13
2023-02-14T13:27:31.527Z,15.00
2023-02-14T13:30:01.266Z,14.32
2023-02-14T13:32:32.206Z,13.40
2023-02-14T13:34:59.308Z,14.32
2023-02-14T13:37:27.470Z,14.30
2023-02-14T13:39:56.734Z,14.25
2023-02-14T13:42:46.722Z,14.52
2023-02-14T13:45:37.576Z,14.85
2023-02-14T13:48:12.010Z,13.98
2023-02-14T13:50:41.484Z,14.57
2023-02-14T13:53:12.751Z,14.73
2023-02-14T13:55:44.069Z,14.18
2023-02-14T13:58:24.297Z,13.55
2023-02-14T14:00:52.927Z,13.50
2023-02-14T14:03:28.932Z,13.77
2023-02-14T14:06:10.868Z,15.35
2023-02-14T14:08:39.601Z,14.77
2023-02-14T14:11:12.652Z,14.75
2023-02-14T14:13:42.800Z,14.13
2023-02-14T14:16:27.763Z,14.25
2023-02-14T14:19:04.911Z,14.60
2023-02-14T14:21:35.461Z,15.43
2023-02-14T14:24:24.306Z,15.05
2023-02-14T14:27:18.570Z,13.82
2023-02-14T14:29:54.165Z,14.05
2023-02-14T14:32:30.620Z,14.70
2023-02-14T14:35:06.636Z,14.50
2023-02-14T14:37:35.577Z,14.98
2023-02-14T14:40:08.282Z,15.10
2023-02-14T14:42:37.444Z,13.85
2023-02-14T14:45:17.273Z,14.82
2023-02-14T14:47:45.540Z,14.40
2023-02-14T14:50:29.154Z,15.15
2023-02-14T14:52:58.153Z,15.23
2023-02-14T14:55:27.322Z,14.88
2023-02-14T14:57:59.612Z,15.13
2023-02-14T15:00:30.836Z,14.95
2023-02-14T15:03:01.407Z,14.48
2023-02-14T15:05:29.915Z,14.77
2023-02-14T15:07:58.428Z,14.55
2023-02-14T15:10:28.517Z,14.63
2023-02-14T15:13:16.286Z,15.23
2023-02-14T15:15:48.881Z,14.48
2023-02-14T15:18:15.690Z,15.30
2023-02-14T15:20:42.853Z,16.20
2023-02-14T15:23:18.115Z,15.20
2023-02-14T15:25:46.428Z,14.90
2023-02-14T15:28:17.516Z,14.95
2023-02-14T15:30:44.925Z,15.75
2023-02-14T15:33:11.906Z,15.68
2023-02-14T15:35:42.490Z,15.18
2023-02-14T15:38:10.937Z,15.57
2023-02-14T15:40:38.967Z,14.82
2023-02-14T15:43:17.827Z,14.88
2023-02-14T15:45:50.291Z,15.35
2023-02-14T15:48:19.294Z,15.13
2023-02-14T15:50:59.074Z,15.45
2023-02-14T15:53:31.982Z,15.80
2023-02-14T15:56:11.009Z,15.57
2023-02-14T15:58:38.774Z,16.85
2023-02-14T16:01:06.556Z,15.23
2023-02-14T16:03:37.152Z,16.30
2023-02-14T16:06:04.980Z,15.43
2023-02-14T16:08:40.136Z,14.05
2023-02-14T16:11:16.122Z,14.40
2023-02-14T16:13:44.999Z,15.13
2023-02-14T16:16:13.842Z,14.57
2023-02-14T16:18:43.557Z,13.65
2023-02-14T16:21:19.727Z,13.30
2023-02-14T16:23:48.263Z,15.13
2023-02-14T16:26:15.024Z,14.95
2023-02-14T16:28:43.528Z,14.05
2023-02-14T16:31:15.772Z,13.95
2023-02-14T16:33:42.763Z,12.90
2023-02-14T16:36:17.992Z,13.73
2023-02-14T16:38:45.756Z,13.77
2023-02-14T16:41:29.035Z,13.32
2023-02-14T16:43:56.522Z,14.63
2023-02-14T16:46:25.834Z,15.02
2023-02-14T16:48:53.016Z,14.43
2023-02-14T16:51:22.077Z,13.55
2023-02-14T16:53:49.040Z,14.18
2023-02-14T16:56:21.384Z,14.77
2023-02-14T16:58:48.304Z,14.23
2023-02-14T17:01:15.022Z,14.23
2023-02-14T17:03:42.968Z,14.25
2023-02-14T17:06:11.563Z,13.70
2023-02-14T17:08:39.977Z,14.02
2023-02-14T17:11:07.180Z,14.30
2023-02-14T17:13:35.742Z,14.75
2023-02-14T17:16:04.446Z,14.40
2023-02-14T17:18:31.751Z,14.18
2023-02-14T17:20:59.418Z,15.40
2023-02-14T17:23:26.778Z,14.45
2023-02-14T17:25:54.066Z,13.88
2023-02-14T17:28:21.968Z,14.30
2023-02-14T17:30:48.932Z,14.82
2023-02-14T17:33:15.960Z,14.15
2023-02-14T17:35:42.827Z,14.55
2023-02-14T17:38:09.950Z,14.52
2023-02-14T17:40:36.906Z,13.43
2023-02-14T17:43:04.036Z,13.60
2023-02-14T17:45:30.948Z,13.65
2023-02-14T17:47:57.740Z,15.27
2023-02-14T17:50:24.501Z,14.48
2023-02-14T17:52:55.560Z,13.30
2023-02-14T17:55:22.904Z,14.45
2023-02-14T17:57:52.638Z,14.55
2023-02-14T18:00:24.124Z,13.55
2023-02-14T18:02:50.844Z,14.75
2023-02-14T18:05:17.592Z,13.75
2023-02-14T18:07:44.562Z,13.30
2023-02-14T18:10:14.472Z,12.60
2023-02-14T18:12:41.350Z,13.45
2023-02-14T18:15:08.428Z,13.98
2023-02-14T18:17:35.120Z,13.68
2023-02-14T18:20:01.860Z,13.05
2023-02-14T18:22:28.813Z,14.63
2023-02-14T18:24:58.859Z,13.32
2023-02-14T18:27:26.204Z,13.40
2023-02-14T18:29:53.305Z,13.00
2023-02-14T18:32:20.334Z,13.50
2023-02-14T18:34:47.195Z,13.77
2023-02-14T18:37:14.322Z,13.80
2023-02-14T18:39:41.148Z,14.20
2023-02-14T18:42:07.789Z,14.25
2023-02-14T18:44:34.537Z,13.80
2023-02-14T18:47:02.151Z,13.68
2023-02-14T18:49:28.975Z,13.75
2023-02-14T18:51:57.411Z,13.45
2023-02-14T18:54:24.478Z,14.07
2023-02-14T18:56:51.296Z,14.25
2023-02-14T18:59:18.235Z,12.43
2023-02-14T19:01:45.552Z,13.95
2023-02-14T19:04:12.919Z,14.18
2023-02-14T19:06:41.176Z,14.35
2023-02-14T19:09:10.972Z,13.18
2023-02-14T19:11:37.788Z,13.80
2023-02-14T19:14:09.960Z,14.73
2023-02-14T19:16:42.186Z,14.30
2023-02-14T19:19:11.361Z,13.65
2023-02-14T19:21:38.231Z,13.75
2023-02-14T19:24:07.187Z,14.30
2023-02-14T19:26:37.794Z,13.07
2023-02-14T19:29:07.627Z,12.73
2023-02-14T19:31:37.574Z,14.18
2023-02-14T19:34:06.405Z,13.60
2023-02-14T19:36:36.380Z,13.23
2023-02-14T19:39:03.929Z,13.90
2023-02-14T19:41:34.481Z,14.30
2023-02-14T19:44:02.638Z,14.10
2023-02-14T19:46:29.596Z,14.07
2023-02-14T19:48:57.645Z,14.10
2023-02-14T19:51:26.596Z,14.48
2023-02-14T19:53:53.855Z,14.15
2023-02-14T19:56:25.978Z,15.13
2023-02-14T19:58:53.101Z,14.30
2023-02-14T20:01:43.078Z,13.85
2023-02-14T20:04:15.303Z,13.57
2023-02-14T20:06:43.244Z,13.57
2023-02-14T20:09:10.077Z,14.27
2023-02-14T20:11:46.801Z,14.13
2023-02-14T20:14:14.337Z,14.10
2023-02-14T20:16:41.305Z,14.15
2023-02-14T20:19:12.902Z,14.20
2023-02-14T20:21:41.903Z,13.73
2023-02-14T20:24:09.232Z,14.23
2023-02-14T20:26:37.375Z,14.52
2023-02-14T20:29:06.162Z,15.18
2023-02-14T20:31:34.232Z,14.15
2023-02-14T20:34:01.565Z,14.95
2023-02-14T20:36:28.735Z,14.20
2023-02-14T20:39:00.024Z,15.07
2023-02-14T20:41:27.866Z,13.90
2023-02-14T20:43:55.239Z,14.30
2023-02-14T20:46:22.537Z,13.60
2023-02-14T20:48:51.089Z,13.88
2023-02-14T20:51:19.997Z,13.90
2023-02-14T20:53:47.228Z,14.15
2023-02-14T20:56:14.716Z,14.25
2023-02-14T20:58:41.962Z,15.32
2023-02-14T21:01:17.275Z,16.10
2023-02-14T21:03:50.824Z,14.73
2023-02-14T21:06:20.618Z,14.75
2023-02-14T21:08:47.665Z,14.85
2023-02-14T21:11:16.449Z,15.02
2023-02-14T21:13:43.356Z,14.70
2023-02-14T21:16:12.495Z,15.05
2023-02-14T21:18:39.226Z,14.88
2023-02-14T21:21:14.539Z,14.85
2023-02-14T21:23:42.233Z,15.32
2023-02-14T21:26:09.672Z,15.32
2023-02-14T21:28:36.340Z,16.38
2023-02-14T21:31:08.256Z,16.30
2023-02-14T21:33:35.862Z,16.52
2023-02-14T21:36:13.796Z,15.95
2023-02-14T21:38:40.886Z,15.63
2023-02-14T21:41:10.326Z,16.15
2023-02-14T21:43:39.132Z,16.58
2023-02-14T21:46:07.478Z,17.67
2023-02-14T21:48:53.925Z,17.42
2023-02-14T21:51:20.939Z,17.77
2023-02-14T21:53:48.112Z,16.02
2023-02-14T21:56:18.080Z,16.25
2023-02-14T21:58:44.840Z,16.85
2023-02-14T22:01:22.557Z,15.98
2023-02-14T22:03:49.371Z,15.38
2023-02-14T22:06:16.329Z,16.45
2023-02-14T22:08:43.125Z,16.60
2023-02-14T22:11:15.516Z,16.42
2023-02-14T22:13:42.559Z,16.45
2023-02-14T22:16:15.214Z,17.58
2023-02-14T22:18:42.325Z,15.82
2023-02-14T22:21:14.383Z,16.95
2023-02-14T22:23:41.568Z,18.55
2023-02-14T22:26:18.525Z,15.82
2023-02-14T22:28:47.256Z,16.73
2023-02-14T22:31:15.393Z,16.77
2023-02-14T22:33:42.534Z,18.00
2023-02-14T22:36:09.531Z,16.85
2023-02-14T22:38:36.841Z,17.67
2023-02-14T22:41:21.868Z,18.05
2023-02-14T22:43:49.251Z,19.40
2023-02-14T22:46:27.475Z,18.50
2023-02-14T22:48:55.116Z,18.48
2023-02-14T22:51:26.169Z,18.33
2023-02-14T22:53:55.234Z,18.42
2023-02-14T22:56:24.273Z,19.60
2023-02-14T22:58:59.066Z,18.25
2023-02-14T23:01:26.028Z,19.13
2023-02-14T23:03:55.333Z,18.38
2023-02-14T23:06:23.281Z,18.77
2023-02-14T23:08:50.010Z,17.88
2023-02-14T23:11:18.826Z,19.30
2023-02-14T23:14:04.747Z,17.95
2023-02-14T23:16:49.982Z,17.83
2023-02-14T23:19:40.739Z,18.23
2023-02-14T23:22:20.581Z,17.77
2023-02-14T23:24:48.989Z,19.13
2023-02-14T23:27:17.621Z,18.40
2023-02-14T23:29:44.265Z,19.33
2023-02-14T23:32:10.967Z,18.33
2023-02-14T23:34:41.324Z,18.85
2023-02-14T23:37:08.641Z,17.77
2023-02-14T23:39:38.298Z,18.98
2023-02-14T23:42:13.543Z,18.35
2023-02-14T23:44:40.568Z,17.35
2023-02-14T23:47:08.902Z,18.98
2023-02-14T23:49:37.214Z,18.00
2023-02-14T23:52:06.605Z,17.83
2023-02-14T23:54:33.821Z,18.27
2023-02-14T23:57:00.625Z,17.02
2023-02-14T23:59:27.440Z,18.98
